Time;durP1;ratioP1;P1;durP2;ratioP2;P2;SDS_P1;SDS_P2;PMS_P1;PMS_P2;Temp;Humidity;BMP_temperature;BMP_pressure;BME280_temperature;BME280_humidity;BME280_pressure;Samples;Min_cycle;Max_cycle;Signal;HPM_P1;HPM_P2
2024/03/02 00:00:46;;;;;;;7.00;5.20;;;6.20;99.90;;;;;;5071887;28;20178;-55
2024/03/02 00:03:14;;;;;;;6.50;5.75;;;6.30;99.90;;;;;;5071597;28;20550;-54
2024/03/02 00:05:39;;;;;;;9.77;5.90;;;6.30;99.90;;;;;;5072019;28;20192;-55
2024/03/02 00:08:07;;;;;;;9.57;5.53;;;6.20;99.90;;;;;;5071640;28;20259;-54
2024/03/02 00:10:39;;;;;;;8.18;5.47;;;6.30;99.90;;;;;;5071117;28;20440;-55
2024/03/02 00:13:07;;;;;;;10.70;6.70;;;6.20;99.90;;;;;;5071639;28;20184;-56
2024/03/02 00:15:47;;;;;;;8.48;5.30;;;6.30;99.90;;;;;;5071637;28;20200;-56
2024/03/02 00:18:16;;;;;;;6.05;4.65;;;6.30;99.90;;;;;;5071572;28;20244;-54
2024/03/02 00:20:42;;;;;;;8.50;5.80;;;6.40;99.90;;;;;;5071698;28;20239;-55
2024/03/02 00:23:10;;;;;;;8.68;7.30;;;6.30;99.90;;;;;;5071522;28;20177;-56
2024/03/02 00:25:42;;;;;;;11.80;6.60;;;6.30;99.90;;;;;;5071495;28;20172;-55
2024/03/02 00:28:26;;;;;;;8.45;5.20;;;6.40;99.90;;;;;;5071286;28;20177;-55
2024/03/02 00:30:57;;;;;;;8.77;5.43;;;6.50;99.90;;;;;;5071557;28;20201;-55
2024/03/02 00:33:26;;;;;;;7.78;5.30;;;6.40;99.90;;;;;;5071469;28;20754;-55
2024/03/02 00:35:52;;;;;;;6.65;5.60;;;6.40;99.90;;;;;;5071531;28;20183;-56
2024/03/02 00:38:18;;;;;;;8.30;6.38;;;6.40;99.90;;;;;;5071090;28;20179;-55
2024/03/02 00:40:44;;;;;;;6.77;5.77;;;6.40;99.90;;;;;;5071885;28;20182;-56
2024/03/02 00:43:51;;;;;;;7.68;5.65;;;6.40;99.90;;;;;;5071276;28;20414;-56
2024/03/02 00:46:20;;;;;;;10.85;6.03;;;6.30;99.90;;;;;;5070780;28;20193;-55
2024/03/02 00:48:56;;;;;;;5.80;4.32;;;6.30;99.90;;;;;;5071065;28;20181;-55
2024/03/02 00:51:24;;;;;;;7.13;5.22;;;6.20;99.90;;;;;;5071315;28;20193;-56
2024/03/02 00:53:51;;;;;;;7.82;5.00;;;6.00;99.90;;;;;;5071208;28;20212;-56
2024/03/02 00:56:17;;;;;;;8.05;5.18;;;6.00;99.90;;;;;;5071144;28;20180;-56
2024/03/02 00:58:42;;;;;;;9.20;7.50;;;6.10;99.90;;;;;;5071047;28;20174;-54
2024/03/02 01:01:09;;;;;;;8.60;6.00;;;6.10;99.90;;;;;;5071216;28;20183;-53
2024/03/02 01:03:35;;;;;;;11.13;6.68;;;6.00;99.90;;;;;;5070917;28;20292;-55
2024/03/02 01:06:01;;;;;;;10.33;7.43;;;5.90;99.90;;;;;;5071154;28;20255;-55
2024/03/02 01:08:26;;;;;;;6.90;6.23;;;5.80;99.90;;;;;;5071077;28;20486;-52
2024/03/02 01:10:52;;;;;;;7.60;5.40;;;5.90;99.90;;;;;;5071058;28;20628;-54
2024/03/02 01:13:18;;;;;;;11.60;6.70;;;5.90;99.90;;;;;;5070967;28;20189;-54
2024/03/02 01:15:43;;;;;;;11.23;6.90;;;6.00;99.90;;;;;;5071124;28;20517;-55
2024/03/02 01:18:09;;;;;;;10.80;6.97;;;6.00;99.90;;;;;;5070731;28;20544;-55
2024/03/02 01:20:35;;;;;;;15.50;7.20;;;6.00;99.90;;;;;;5071124;28;20253;-54
2024/03/02 01:23:00;;;;;;;10.00;7.40;;;5.90;99.90;;;;;;5073206;28;20235;-54
2024/03/02 01:25:26;;;;;;;6.80;6.07;;;5.90;99.90;;;;;;5074914;28;20571;-55
2024/03/02 01:27:52;;;;;;;10.53;7.20;;;5.80;99.90;;;;;;5074633;28;20166;-55
2024/03/02 01:30:17;;;;;;;17.10;6.60;;;5.80;99.90;;;;;;5074810;28;20177;-54
2024/03/02 01:32:43;;;;;;;10.57;7.17;;;5.70;99.90;;;;;;5074629;28;20251;-54
2024/03/02 01:35:08;;;;;;;6.70;5.80;;;5.80;99.90;;;;;;5074822;28;20195;-53
2024/03/02 01:37:34;;;;;;;6.33;5.07;;;5.80;99.90;;;;;;5074418;28;20192;-56
2024/03/02 01:40:00;;;;;;;8.90;5.97;;;5.80;99.90;;;;;;5074608;28;20186;-54
2024/03/02 01:42:26;;;;;;;9.60;6.63;;;5.70;99.90;;;;;;5074582;28;20412;-55
2024/03/02 01:44:51;;;;;;;9.33;6.50;;;5.80;99.90;;;;;;5074534;28;20193;-54
2024/03/02 01:47:17;;;;;;;6.87;5.17;;;5.80;99.90;;;;;;5074343;28;20208;-56
2024/03/02 01:49:43;;;;;;;8.80;5.43;;;5.90;99.90;;;;;;5074248;28;20536;-55
2024/03/02 01:52:09;;;;;;;5.80;5.10;;;5.80;99.90;;;;;;5074355;28;20455;-54
2024/03/02 01:54:35;;;;;;;6.70;5.43;;;5.80;99.90;;;;;;5074300;28;20428;-56
2024/03/02 01:57:00;;;;;;;9.37;6.23;;;5.80;99.90;;;;;;5074292;28;20165;-54
2024/03/02 01:59:27;;;;;;;9.90;6.30;;;5.90;99.90;;;;;;5074049;28;20361;-55
2024/03/02 02:01:52;;;;;;;6.07;5.43;;;5.80;99.90;;;;;;5074090;28;20489;-55
2024/03/02 02:04:21;;;;;;;6.47;5.10;;;5.80;99.90;;;;;;5093276;22;20855;-59
2024/03/02 02:06:47;;;;;;;10.60;6.78;;;5.70;99.90;;;;;;5053761;28;20671;-58
2024/03/02 02:09:13;;;;;;;7.50;5.10;;;5.80;99.90;;;;;;5053577;28;20180;-59
2024/03/02 02:11:38;;;;;;;8.70;5.57;;;5.90;99.90;;;;;;5054119;28;20494;-58
2024/03/02 02:14:06;;;;;;;10.80;6.30;;;5.90;99.90;;;;;;5054045;28;20550;-57
2024/03/02 02:16:31;;;;;;;10.05;5.82;;;6.00;99.90;;;;;;5053956;28;20181;-59
2024/03/02 02:18:57;;;;;;;7.13;6.33;;;5.90;99.90;;;;;;5053664;28;20170;-59
2024/03/02 02:21:26;;;;;;;8.30;6.17;;;5.90;99.90;;;;;;5054759;28;20212;-58
2024/03/02 02:23:51;;;;;;;7.72;6.20;;;6.00;99.90;;;;;;5053725;28;20204;-58
2024/03/02 02:26:17;;;;;;;6.80;6.20;;;6.00;99.90;;;;;;5053763;28;20175;-58
2024/03/02 02:28:46;;;;;;;8.90;7.30;;;6.00;99.90;;;;;;5053613;28;20667;-58
2024/03/02 02:31:13;;;;;;;8.18;6.70;;;6.00;99.90;;;;;;5035752;28;20246;-58
2024/03/02 02:33:42;;;;;;;6.30;5.53;;;5.90;99.90;;;;;;5052961;28;20174;-58
2024/03/02 02:36:08;;;;;;;9.75;6.63;;;6.00;99.90;;;;;;5053756;28;20177;-58
2024/03/02 02:38:38;;;;;;;12.70;6.73;;;6.00;99.90;;;;;;5053504;28;20178;-58
2024/03/02 02:41:03;;;;;;;8.27;5.82;;;5.90;99.90;;;;;;5053611;28;20437;-58
2024/03/02 02:43:29;;;;;;;8.90;6.90;;;5.90;99.90;;;;;;5053501;28;20229;-58
2024/03/02 02:45:54;;;;;;;12.10;7.97;;;6.00;99.90;;;;;;5053333;28;20201;-58
2024/03/02 02:48:20;;;;;;;12.93;8.60;;;6.00;99.90;;;;;;5053263;28;20253;-58
2024/03/02 02:50:46;;;;;;;8.77;6.83;;;6.00;99.90;;;;;;5053410;28;20232;-58
2024/03/02 02:53:11;;;;;;;10.53;6.67;;;5.90;99.90;;;;;;5053729;28;20581;-58
2024/03/02 02:55:40;;;;;;;10.43;7.40;;;5.90;99.90;;;;;;5053327;28;20193;-58
2024/03/02 02:58:06;;;;;;;10.60;6.57;;;5.90;99.90;;;;;;5053049;28;20659;-58
2024/03/02 03:00:32;;;;;;;8.30;6.28;;;5.90;99.90;;;;;;5053323;28;20631;-58
2024/03/02 03:02:58;;;;;;;10.10;7.10;;;5.80;99.90;;;;;;5053419;28;20253;-58
2024/03/02 03:05:23;;;;;;;11.73;6.87;;;5.80;99.90;;;;;;5053046;28;20687;-58
2024/03/02 03:07:50;;;;;;;11.57;7.03;;;5.70;99.90;;;;;;5052976;28;20587;-58
2024/03/02 03:10:16;;;;;;;10.77;7.05;;;5.60;99.90;;;;;;5053032;28;20205;-58
2024/03/02 03:12:45;;;;;;;8.45;6.28;;;5.70;99.90;;;;;;5052985;28;20202;-58
2024/03/02 03:15:11;;;;;;;12.82;7.25;;;5.70;99.90;;;;;;5052955;28;20199;-58
2024/03/02 03:17:37;;;;;;;9.30;7.00;;;5.70;99.90;;;;;;5052639;28;20190;-58
2024/03/02 03:20:04;;;;;;;14.43;7.57;;;5.70;99.90;;;;;;5052859;28;20182;-57
2024/03/02 03:22:31;;;;;;;8.05;5.97;;;5.60;99.90;;;;;;5052822;28;20413;-58
2024/03/02 03:24:57;;;;;;;8.52;6.60;;;5.60;99.90;;;;;;5051156;28;20252;-58
2024/03/02 03:27:22;;;;;;;11.20;6.93;;;5.60;99.90;;;;;;5052713;28;20170;-58
2024/03/02 03:29:48;;;;;;;11.13;7.90;;;5.50;99.90;;;;;;5052503;28;20178;-58
2024/03/02 03:32:14;;;;;;;9.67;7.73;;;5.50;99.90;;;;;;5052456;28;20195;-58
2024/03/02 03:34:40;;;;;;;7.63;6.18;;;5.50;99.90;;;;;;5052648;28;20194;-58
2024/03/02 03:37:05;;;;;;;10.27;6.63;;;5.50;99.90;;;;;;5052552;28;20174;-58
2024/03/02 03:39:33;;;;;;;13.70;8.20;;;5.50;99.90;;;;;;5052203;28;20955;-58
2024/03/02 03:41:59;;;;;;;11.10;6.80;;;5.40;99.90;;;;;;5052483;28;20699;-58
2024/03/02 03:44:24;;;;;;;10.17;7.10;;;5.40;99.90;;;;;;5052289;28;20205;-58
2024/03/02 03:46:50;;;;;;;8.40;5.80;;;5.40;99.90;;;;;;5052338;28;20259;-58
2024/03/02 03:49:17;;;;;;;6.83;5.03;;;5.30;99.90;;;;;;5052152;28;20166;-58
2024/03/02 03:51:42;;;;;;;6.70;6.00;;;5.20;99.90;;;;;;5052228;28;20668;-58
2024/03/02 03:54:08;;;;;;;6.67;4.43;;;5.20;99.90;;;;;;5052103;28;20281;-58
2024/03/02 03:56:34;;;;;;;10.20;5.57;;;5.10;99.90;;;;;;5052058;28;20189;-58
2024/03/02 03:58:59;;;;;;;8.63;6.20;;;5.10;99.90;;;;;;5051909;28;20179;-58
2024/03/02 04:01:25;;;;;;;7.43;5.40;;;5.00;99.90;;;;;;5052137;28;20185;-58
2024/03/02 04:03:51;;;;;;;9.10;5.70;;;4.90;99.90;;;;;;5051814;28;20260;-58
2024/03/02 04:06:17;;;;;;;7.93;5.33;;;4.80;99.90;;;;;;5051987;28;20417;-58
2024/03/02 04:08:43;;;;;;;7.97;5.22;;;4.80;99.90;;;;;;5051624;28;20201;-58
2024/03/02 04:11:08;;;;;;;6.93;4.77;;;4.70;99.90;;;;;;5051824;28;20202;-58
2024/03/02 04:13:34;;;;;;;7.70;5.13;;;4.70;99.90;;;;;;5051831;28;20166;-58
2024/03/02 04:16:00;;;;;;;6.97;5.30;;;4.60;99.90;;;;;;5051856;28;20194;-58
2024/03/02 04:18:25;;;;;;;6.57;4.83;;;4.50;99.90;;;;;;5051561;28;20193;-58
2024/03/02 04:20:51;;;;;;;9.37;6.07;;;4.50;99.90;;;;;;5051651;28;20244;-58
2024/03/02 04:23:16;;;;;;;5.93;4.60;;;4.40;99.90;;;;;;5051624;28;20169;-58
2024/03/02 04:25:42;;;;;;;4.07;3.67;;;4.20;99.90;;;;;;5051600;28;20717;-58
2024/03/02 04:28:08;;;;;;;5.13;3.73;;;4.20;99.90;;;;;;5051449;28;20182;-58
2024/03/02 04:30:33;;;;;;;5.40;3.00;;;4.10;99.90;;;;;;5051456;28;20182;-58
2024/03/02 04:32:59;;;;;;;8.70;5.10;;;4.10;99.90;;;;;;5063525;28;20173;-58
2024/03/02 04:35:25;;;;;;;5.20;4.17;;;4.00;99.90;;;;;;5071504;28;20235;-58
2024/03/02 04:37:51;;;;;;;4.80;3.75;;;3.90;99.90;;;;;;5071216;28;20189;-58
2024/03/02 04:40:16;;;;;;;7.60;3.67;;;3.80;99.90;;;;;;5071522;28;20209;-58
2024/03/02 04:42:43;;;;;;;7.23;4.13;;;3.90;99.90;;;;;;5071457;28;20646;-58
2024/03/02 04:45:09;;;;;;;5.55;4.03;;;3.80;99.90;;;;;;5071368;28;20598;-58
2024/03/02 04:47:34;;;;;;;6.18;3.35;;;3.80;99.90;;;;;;5071145;28;20246;-57
2024/03/02 04:50:00;;;;;;;6.50;3.53;;;3.60;99.90;;;;;;5071499;28;20315;-58
2024/03/02 04:52:25;;;;;;;15.10;5.93;;;3.60;99.90;;;;;;5071372;28;20824;-58
2024/03/02 04:55:09;;;;;;;6.20;4.23;;;3.70;99.90;;;;;;5071273;28;20596;-58
2024/03/02 04:57:35;;;;;;;8.25;4.45;;;3.60;99.90;;;;;;5074367;28;20630;-58
2024/03/02 05:00:01;;;;;;;4.50;3.80;;;3.50;99.90;;;;;;5077993;28;20177;-58
2024/03/02 05:02:27;;;;;;;8.30;4.10;;;3.50;99.90;;;;;;5077983;28;20176;-58
2024/03/02 05:04:52;;;;;;;7.03;4.67;;;3.50;99.90;;;;;;5077803;28;20449;-57
2024/03/02 05:07:18;;;;;;;5.70;3.60;;;3.50;99.90;;;;;;5077880;28;20216;-58
2024/03/02 05:09:43;;;;;;;5.90;4.40;;;3.50;99.90;;;;;;5077732;28;20583;-58
2024/03/02 05:14:54;;;;;;;4.75;4.05;;;3.50;99.90;;;;;;5078203;28;20214;-58
2024/03/02 05:17:19;;;;;;;10.30;5.80;;;3.60;99.90;;;;;;5077846;28;20252;-58
2024/03/02 05:19:45;;;;;;;5.10;3.90;;;3.50;99.90;;;;;;5077594;28;20191;-58
2024/03/02 05:22:11;;;;;;;12.67;5.10;;;3.60;99.90;;;;;;5077716;28;20180;-57
2024/03/02 05:24:36;;;;;;;5.00;4.20;;;3.70;99.90;;;;;;5077410;28;20189;-58
2024/03/02 05:27:02;;;;;;;7.90;3.40;;;3.70;99.90;;;;;;5077574;28;20641;-58
2024/03/02 05:29:28;;;;;;;5.77;4.13;;;3.70;99.90;;;;;;5077605;28;20177;-58
2024/03/02 05:31:53;;;;;;;6.23;4.50;;;3.80;99.90;;;;;;5077611;28;20197;-58
2024/03/02 05:34:19;;;;;;;5.30;4.30;;;3.80;99.90;;;;;;5077589;28;20647;-58
2024/03/02 05:36:44;;;;;;;7.40;5.00;;;3.90;99.90;;;;;;5077507;28;20197;-58
2024/03/02 05:39:10;;;;;;;5.00;4.33;;;3.90;99.90;;;;;;5077357;28;20172;-58
2024/03/02 05:41:36;;;;;;;7.73;4.37;;;3.80;99.90;;;;;;5077838;28;20553;-58
2024/03/02 05:44:01;;;;;;;4.70;3.87;;;3.90;99.90;;;;;;5077692;28;20197;-58
2024/03/02 05:46:27;;;;;;;4.90;4.00;;;3.90;99.90;;;;;;5077575;28;20177;-58
2024/03/02 05:48:53;;;;;;;3.80;3.40;;;3.90;99.90;;;;;;5077362;28;20207;-58
2024/03/02 05:51:19;;;;;;;4.03;3.63;;;3.80;99.90;;;;;;5077310;28;20197;-58
2024/03/02 05:53:44;;;;;;;4.90;4.03;;;3.70;99.90;;;;;;5077204;28;20298;-58
2024/03/02 05:56:11;;;;;;;7.30;2.83;;;3.70;99.90;;;;;;5077531;28;20165;-58
2024/03/02 06:01:15;;;;;;;6.63;4.43;;;3.70;99.90;;;;;;5077476;28;20568;-58
2024/03/02 06:03:41;;;;;;;7.33;4.70;;;3.80;99.90;;;;;;5077312;28;20169;-58
2024/03/02 06:06:06;;;;;;;7.17;4.63;;;3.80;99.90;;;;;;5077018;28;20185;-58
2024/03/02 06:08:32;;;;;;;6.57;5.30;;;3.70;99.90;;;;;;5074971;28;20599;-58
2024/03/02 06:10:58;;;;;;;6.20;4.03;;;3.80;99.90;;;;;;5073997;28;20197;-57
2024/03/02 06:13:25;;;;;;;6.20;3.47;;;3.80;99.90;;;;;;5074279;28;20670;-58
2024/03/02 06:15:51;;;;;;;6.32;2.75;;;3.70;99.90;;;;;;5073935;28;20420;-58
2024/03/02 06:18:16;;;;;;;5.87;4.20;;;3.50;99.90;;;;;;5073779;28;20170;-58
2024/03/02 06:20:42;;;;;;;6.53;4.40;;;3.50;99.90;;;;;;5073850;28;20179;-58
2024/03/02 06:23:08;;;;;;;7.20;4.23;;;3.60;99.90;;;;;;5073744;28;20182;-58
2024/03/02 06:25:33;;;;;;;5.07;3.90;;;3.70;99.90;;;;;;5073887;28;20428;-58
2024/03/02 06:27:59;;;;;;;4.43;3.70;;;3.70;99.90;;;;;;5073485;28;20222;-58
2024/03/02 06:30:25;;;;;;;7.97;5.70;;;3.70;99.90;;;;;;5073922;28;20166;-58
2024/03/02 06:32:50;;;;;;;5.70;4.40;;;3.80;99.90;;;;;;5073746;28;20197;-58
2024/03/02 06:35:16;;;;;;;4.10;3.70;;;3.90;99.90;;;;;;5073677;28;20554;-58
2024/03/02 06:37:42;;;;;;;8.67;5.90;;;3.90;99.90;;;;;;5073532;28;20170;-58
2024/03/02 06:40:08;;;;;;;4.90;3.97;;;3.80;99.90;;;;;;5073886;28;20603;-58
2024/03/02 06:42:35;;;;;;;7.78;4.63;;;3.90;99.90;;;;;;5073638;28;20404;-58
2024/03/02 06:45:01;;;;;;;7.50;5.25;;;4.00;99.90;;;;;;5073522;28;20197;-58
2024/03/02 06:47:26;;;;;;;9.20;5.90;;;4.10;99.90;;;;;;5073413;28;20177;-58
2024/03/02 06:49:53;;;;;;;6.73;4.67;;;4.10;99.90;;;;;;5073593;28;20647;-57
2024/03/02 06:52:20;;;;;;;8.15;6.30;;;4.10;99.90;;;;;;5073339;28;20221;-58
2024/03/02 06:54:45;;;;;;;5.80;4.72;;;4.20;99.90;;;;;;5073536;28;20232;-58
2024/03/02 06:57:11;;;;;;;8.17;6.27;;;4.30;99.90;;;;;;5065011;28;20227;-58
2024/03/02 06:59:37;;;;;;;5.73;4.77;;;4.40;99.90;;;;;;5053158;28;20253;-58
2024/03/02 07:02:02;;;;;;;6.53;5.83;;;4.40;99.90;;;;;;5053282;28;20209;-58
2024/03/02 07:04:28;;;;;;;6.90;4.87;;;4.50;99.90;;;;;;5052902;28;20230;-58
2024/03/02 07:06:54;;;;;;;6.80;5.30;;;4.70;99.90;;;;;;5054398;28;20635;-58
2024/03/02 07:09:22;;;;;;;5.35;4.82;;;4.70;99.90;;;;;;5072084;28;20239;-59
2024/03/02 07:11:48;;;;;;;10.48;5.45;;;4.80;99.90;;;;;;5072883;28;20691;-58
2024/03/02 07:14:14;;;;;;;7.38;4.47;;;4.80;99.90;;;;;;5072760;28;20246;-58
2024/03/02 07:16:40;;;;;;;6.30;5.40;;;5.00;99.90;;;;;;5072762;28;20177;-58
2024/03/02 07:19:06;;;;;;;6.93;4.10;;;5.10;99.90;;;;;;5072547;28;20270;-58
2024/03/02 07:21:33;;;;;;;7.97;5.07;;;5.30;99.90;;;;;;5072464;28;20454;-58
2024/03/02 07:23:59;;;;;;;7.95;4.68;;;5.40;99.90;;;;;;5072785;28;20419;-58
2024/03/02 07:26:25;;;;;;;5.88;3.97;;;6.10;99.90;;;;;;5072867;28;20227;-58
2024/03/02 07:28:51;;;;;;;6.30;4.30;;;7.50;99.90;;;;;;5072484;28;20165;-59
2024/03/02 07:31:17;;;;;;;5.47;4.47;;;9.10;98.00;;;;;;5072469;28;20462;-59
2024/03/02 07:33:48;;;;;;;9.23;4.23;;;10.50;94.20;;;;;;5072405;28;20405;-59
2024/03/02 07:36:14;;;;;;;4.93;3.90;;;11.20;91.70;;;;;;5072456;28;20408;-59
2024/03/02 07:38:40;;;;;;;4.83;3.80;;;12.00;91.10;;;;;;5072252;28;20496;-59
2024/03/02 07:41:07;;;;;;;5.90;4.83;;;12.90;90.50;;;;;;5072666;28;20431;-59
2024/03/02 07:43:33;;;;;;;4.17;3.77;;;13.80;85.10;;;;;;5072477;28;20178;-59
2024/03/02 07:45:59;;;;;;;5.40;4.40;;;14.40;83.60;;;;;;5070934;28;20438;-59
2024/03/02 07:48:25;;;;;;;3.70;3.40;;;14.80;79.90;;;;;;5071910;28;20449;-58
2024/03/02 07:50:50;;;;;;;5.07;4.37;;;15.20;78.90;;;;;;5072313;28;20545;-59
2024/03/02 07:53:16;;;;;;;3.57;3.27;;;15.70;75.10;;;;;;5072145;28;20515;-59
2024/03/02 07:55:42;;;;;;;6.73;5.20;;;15.90;73.50;;;;;;5072089;28;20206;-59
2024/03/02 07:58:08;;;;;;;4.73;4.33;;;16.30;71.40;;;;;;5071965;28;20202;-59
2024/03/02 08:00:35;;;;;;;3.83;3.53;;;16.70;70.10;;;;;;5072109;28;20242;-59
2024/03/02 08:03:01;;;;;;;3.27;3.03;;;16.60;68.80;;;;;;5072073;28;20810;-59
2024/03/02 08:05:27;;;;;;;2.60;2.40;;;16.50;67.40;;;;;;5071769;28;20439;-60
2024/03/02 08:07:53;;;;;;;3.60;3.20;;;16.20;68.40;;;;;;5071591;28;20422;-60
2024/03/02 08:10:19;;;;;;;4.07;2.67;;;16.20;68.60;;;;;;5072007;28;20509;-61
2024/03/02 08:12:45;;;;;;;3.77;3.03;;;16.40;67.70;;;;;;5071853;28;20459;-60
2024/03/02 08:15:12;;;;;;;3.93;3.40;;;16.70;66.30;;;;;;5071783;28;20951;-60
2024/03/02 08:17:44;;;;;;;3.37;3.07;;;16.90;63.90;;;;;;5071463;28;20835;-61
2024/03/02 08:20:11;;;;;;;2.57;2.37;;;17.00;65.00;;;;;;5071914;28;20417;-61
2024/03/02 08:22:38;;;;;;;2.60;2.40;;;17.30;64.60;;;;;;5071893;28;20414;-60
2024/03/02 08:25:04;;;;;;;2.80;2.60;;;17.80;64.60;;;;;;5071628;28;20427;-60
2024/03/02 08:27:32;;;;;;;3.07;2.40;;;18.60;61.00;;;;;;5071457;28;20498;-61
2024/03/02 08:29:57;;;;;;;3.50;2.53;;;19.20;58.60;;;;;;5071516;28;20416;-60
2024/03/02 08:32:23;;;;;;;2.60;2.40;;;19.50;57.50;;;;;;5070869;28;20477;-61
2024/03/02 08:34:48;;;;;;;3.77;3.47;;;19.70;56.80;;;;;;5071582;28;20647;-61
2024/03/02 08:37:14;;;;;;;3.10;2.53;;;19.80;57.20;;;;;;5071527;28;20174;-61
2024/03/02 08:39:40;;;;;;;3.67;3.37;;;19.90;55.70;;;;;;5071363;28;20165;-61
2024/03/02 08:42:05;;;;;;;3.83;3.43;;;20.10;55.50;;;;;;5071564;28;20260;-60
2024/03/02 08:44:31;;;;;;;5.67;3.83;;;20.70;54.90;;;;;;5071306;28;20204;-60
2024/03/02 08:46:57;;;;;;;4.63;4.23;;;21.10;53.70;;;;;;5071455;28;20177;-60
2024/03/02 08:49:22;;;;;;;4.37;4.00;;;21.90;52.90;;;;;;5071178;28;20178;-60
2024/03/02 08:51:54;;;;;;;4.50;4.10;;;22.80;50.60;;;;;;5071254;28;20197;-61
2024/03/02 08:54:21;;;;;;;3.83;3.53;;;23.70;49.70;;;;;;5071706;28;20730;-61
2024/03/02 08:56:47;;;;;;;4.30;3.90;;;24.00;46.90;;;;;;5071384;28;20897;-61
2024/03/02 08:59:13;;;;;;;4.20;3.80;;;24.30;47.80;;;;;;5070983;28;20408;-61
2024/03/02 09:01:41;;;;;;;4.70;3.77;;;24.90;47.80;;;;;;5071421;28;20422;-61
2024/03/02 09:04:08;;;;;;;4.40;3.90;;;25.70;45.30;;;;;;5071181;28;20235;-61
2024/03/02 09:06:34;;;;;;;4.47;4.00;;;26.30;43.70;;;;;;5071460;28;20464;-61
2024/03/02 09:09:00;;;;;;;3.50;3.20;;;26.30;43.00;;;;;;5071094;28;20894;-61
2024/03/02 09:11:26;;;;;;;3.13;2.80;;;25.70;42.40;;;;;;5071192;28;20204;-61
2024/03/02 09:13:52;;;;;;;3.00;2.70;;;25.80;42.40;;;;;;5069942;28;20287;-61
2024/03/02 09:16:18;;;;;;;4.43;3.33;;;26.30;42.30;;;;;;5071334;28;20970;-61
2024/03/02 09:18:44;;;;;;;3.60;3.40;;;26.50;40.50;;;;;;5070784;28;20494;-62
2024/03/02 09:21:10;;;;;;;3.43;2.33;;;26.50;40.60;;;;;;5071266;28;20252;-61
2024/03/02 09:23:35;;;;;;;2.63;2.43;;;25.90;40.40;;;;;;5071151;28;20204;-61
2024/03/02 09:26:01;;;;;;;4.37;3.70;;;25.60;40.40;;;;;;5070953;28;20423;-61
2024/03/02 09:28:26;;;;;;;4.23;3.53;;;25.60;40.50;;;;;;5071112;28;20260;-61
2024/03/02 09:30:52;;;;;;;3.53;3.23;;;25.70;40.40;;;;;;5071039;28;20224;-61
2024/03/02 09:33:18;;;;;;;2.53;2.33;;;25.70;41.30;;;;;;5070914;28;20170;-61
2024/03/02 09:35:43;;;;;;;2.80;2.57;;;25.90;41.20;;;;;;5070245;28;20730;-61
2024/03/02 09:38:09;;;;;;;3.80;3.40;;;26.30;40.40;;;;;;5070779;28;20460;-61
2024/03/02 09:40:34;;;;;;;1.90;1.80;;;26.30;39.40;;;;;;5068569;28;20173;-62
2024/03/02 09:43:02;;;;;;;4.07;2.67;;;25.90;39.30;;;;;;5070769;28;20592;-61
2024/03/02 09:45:30;;;;;;;2.20;1.50;;;24.50;38.60;;;;;;5074611;28;20185;-61
2024/03/02 09:47:56;;;;;;;3.17;1.50;;;23.30;41.00;;;;;;5071639;28;20434;-61
2024/03/02 09:50:22;;;;;;;2.30;1.83;;;22.40;41.10;;;;;;5074145;28;20905;-61
2024/03/02 09:52:50;;;;;;;0.83;0.83;;;21.50;42.10;;;;;;5074515;28;20422;-61
2024/03/02 09:55:17;;;;;;;0.80;0.80;;;20.70;41.80;;;;;;5074304;28;20398;-60
2024/03/02 09:57:43;;;;;;;1.10;1.00;;;19.80;43.20;;;;;;5074128;28;20453;-61
2024/03/02 10:00:14;;;;;;;1.90;1.80;;;19.30;44.20;;;;;;5074253;28;20492;-61
2024/03/02 10:02:43;;;;;;;1.40;1.30;;;18.80;44.70;;;;;;5074272;28;20210;-61
2024/03/02 10:05:12;;;;;;;0.90;0.90;;;18.80;45.80;;;;;;5074047;28;20451;-62
2024/03/02 10:07:38;;;;;;;1.53;1.43;;;18.70;46.10;;;;;;5073412;28;20416;-62
2024/03/02 10:10:16;;;;;;;1.03;0.90;;;19.20;45.40;;;;;;5074022;28;20415;-61
2024/03/02 10:12:41;;;;;;;1.03;1.00;;;19.50;46.50;;;;;;5074008;28;20211;-62
2024/03/02 10:15:09;;;;;;;2.17;1.03;;;19.60;45.40;;;;;;5074182;28;20795;-62
2024/03/02 10:17:35;;;;;;;1.30;1.10;;;19.40;44.10;;;;;;5073747;28;20259;-62
2024/03/02 10:20:29;;;;;;;1.67;1.13;;;18.80;45.50;;;;;;5074170;28;20437;-62
2024/03/02 10:22:55;;;;;;;0.63;0.63;;;19.00;46.10;;;;;;5074106;28;20213;-61
2024/03/02 10:25:34;;;;;;;1.10;1.00;;;19.40;44.50;;;;;;5073883;28;20423;-62
2024/03/02 10:28:00;;;;;;;0.83;0.70;;;19.00;44.40;;;;;;5073691;28;20412;-62
2024/03/02 10:30:29;;;;;;;1.87;1.57;;;18.80;44.80;;;;;;5073859;28;20404;-62
2024/03/02 10:32:55;;;;;;;2.00;1.20;;;18.80;44.20;;;;;;5073541;28;20454;-63
2024/03/02 10:35:23;;;;;;;3.00;0.87;;;19.00;44.70;;;;;;5073505;28;20871;-62
2024/03/02 10:37:55;;;;;;;0.90;0.90;;;19.30;45.70;;;;;;5073372;28;20406;-61
2024/03/02 10:40:23;;;;;;;1.33;0.80;;;19.50;45.00;;;;;;5073736;28;20898;-61
2024/03/02 10:42:53;;;;;;;0.80;0.80;;;19.50;45.60;;;;;;5073622;28;20420;-61
2024/03/02 10:45:23;;;;;;;2.60;0.90;;;19.50;44.90;;;;;;5073400;28;20442;-61
2024/03/02 10:47:50;;;;;;;0.90;0.70;;;19.10;44.40;;;;;;5073203;28;20418;-61
2024/03/02 10:50:16;;;;;;;1.03;0.93;;;18.60;45.60;;;;;;5073586;28;20496;-62
2024/03/02 10:52:42;;;;;;;1.07;1.00;;;18.50;46.00;;;;;;5073433;28;20467;-63
2024/03/02 10:55:12;;;;;;;0.73;0.73;;;18.60;46.10;;;;;;5072681;28;20442;-62
2024/03/02 10:57:56;;;;;;;1.40;1.30;;;18.20;45.80;;;;;;5073053;28;20414;-62
2024/03/02 11:00:30;;;;;;;1.50;1.40;;;18.10;46.40;;;;;;5073458;28;20759;-62
2024/03/02 11:02:58;;;;;;;1.17;1.07;;;17.90;47.70;;;;;;5073264;28;20843;-62
2024/03/02 11:05:31;;;;;;;1.10;0.87;;;17.60;48.20;;;;;;5073058;28;20457;-62
2024/03/02 11:08:07;;;;;;;1.60;1.00;;;17.40;47.60;;;;;;5072915;28;20420;-62
2024/03/02 11:10:54;;;;;;;2.00;1.10;;;17.40;48.90;;;;;;5073045;28;20467;-61
2024/03/02 11:13:31;;;;;;;0.80;0.80;;;17.40;48.40;;;;;;5073086;28;20412;-62
2024/03/02 11:16:02;;;;;;;1.00;0.90;;;17.40;48.90;;;;;;5072789;28;20502;-62
2024/03/02 11:18:28;;;;;;;1.33;0.90;;;17.10;47.90;;;;;;5072656;28;20407;-62
2024/03/02 11:20:54;;;;;;;1.40;1.00;;;16.60;47.10;;;;;;5072835;28;20395;-62
2024/03/02 11:23:32;;;;;;;1.43;1.10;;;16.30;49.20;;;;;;5072990;28;20400;-62
2024/03/02 11:26:20;;;;;;;0.60;0.60;;;16.00;48.90;;;;;;5072838;28;20205;-62
2024/03/02 11:28:46;;;;;;;1.17;0.83;;;15.60;49.70;;;;;;5072221;28;20835;-63
2024/03/02 11:31:12;;;;;;;1.43;1.33;;;15.30;50.40;;;;;;5072506;28;20451;-61
2024/03/02 11:33:38;;;;;;;1.00;1.00;;;15.10;50.70;;;;;;5072530;28;20408;-61
2024/03/02 11:36:06;;;;;;;0.93;0.90;;;15.10;49.70;;;;;;5072486;28;20196;-62
2024/03/02 11:38:33;;;;;;;1.30;1.13;;;15.20;50.20;;;;;;5072232;28;20168;-62
2024/03/02 11:41:08;;;;;;;1.23;1.13;;;15.30;49.50;;;;;;5072556;28;20796;-61
2024/03/02 11:43:39;;;;;;;1.17;1.07;;;14.80;49.10;;;;;;5072267;28;20789;-62
2024/03/02 11:46:07;;;;;;;4.70;1.50;;;14.50;49.90;;;;;;5072458;28;20776;-62
2024/03/02 11:48:34;;;;;;;1.60;1.33;;;14.30;50.00;;;;;;5071994;28;20497;-62
2024/03/02 11:51:01;;;;;;;1.37;1.17;;;14.30;52.50;;;;;;5072212;28;20400;-61
2024/03/02 11:53:34;;;;;;;1.30;1.30;;;14.50;51.10;;;;;;5072146;28;20466;-62
2024/03/02 11:56:02;;;;;;;1.93;1.50;;;14.70;50.60;;;;;;5071962;28;20501;-62
2024/03/02 11:58:28;;;;;;;1.90;1.80;;;14.50;49.70;;;;;;5072012;28;20408;-62
2024/03/02 12:00:55;;;;;;;2.40;2.20;;;14.50;49.40;;;;;;5072244;28;20418;-62
2024/03/02 12:03:25;;;;;;;2.27;2.17;;;14.30;49.10;;;;;;5071964;28;20428;-62
2024/03/02 12:05:52;;;;;;;2.73;2.40;;;13.90;50.80;;;;;;5071664;28;20972;-62
2024/03/02 12:08:18;;;;;;;2.20;1.77;;;13.90;50.80;;;;;;5070910;28;20411;-61
2024/03/02 12:11:00;;;;;;;3.30;2.13;;;13.70;50.20;;;;;;5071840;28;20415;-62
2024/03/02 12:13:26;;;;;;;1.60;1.50;;;13.60;51.60;;;;;;5071854;28;20427;-59
2024/03/02 12:15:57;;;;;;;1.53;1.43;;;13.90;52.80;;;;;;5071717;28;20477;-59
2024/03/02 12:18:23;;;;;;;1.90;1.80;;;13.60;49.80;;;;;;5071520;28;20173;-59
2024/03/02 12:20:57;;;;;;;2.20;1.67;;;13.70;51.80;;;;;;5071784;28;20471;-59
2024/03/02 12:23:22;;;;;;;3.37;1.50;;;13.90;51.60;;;;;;5071509;28;20437;-59
2024/03/02 12:25:48;;;;;;;3.27;1.90;;;13.90;55.00;;;;;;5071629;28;20475;-59
2024/03/02 12:28:14;;;;;;;1.57;1.47;;;14.10;53.20;;;;;;5071326;28;20201;-59
2024/03/02 12:30:40;;;;;;;2.20;1.53;;;14.00;52.90;;;;;;5071627;28;20442;-59
2024/03/02 12:33:05;;;;;;;1.47;1.37;;;14.10;52.30;;;;;;5071476;28;20618;-59
2024/03/02 12:35:31;;;;;;;1.23;1.13;;;14.10;53.40;;;;;;5071483;28;20623;-59
2024/03/02 12:37:58;;;;;;;2.30;1.73;;;13.90;51.00;;;;;;5071164;28;20175;-59
2024/03/02 12:40:24;;;;;;;2.90;1.47;;;14.10;50.20;;;;;;5071719;28;20169;-58
2024/03/02 12:42:50;;;;;;;1.23;1.13;;;14.00;50.50;;;;;;5071350;28;20833;-59
2024/03/02 12:45:23;;;;;;;1.53;1.43;;;14.00;50.70;;;;;;5071456;28;20201;-59
2024/03/02 12:47:49;;;;;;;1.23;1.10;;;13.90;51.30;;;;;;5071182;28;20407;-59
2024/03/02 12:50:15;;;;;;;1.37;1.27;;;13.70;50.70;;;;;;5071225;28;20408;-59
2024/03/02 12:52:40;;;;;;;0.80;0.80;;;13.70;50.40;;;;;;5071163;28;20451;-59
2024/03/02 12:55:06;;;;;;;1.20;1.07;;;13.80;55.00;;;;;;5071212;28;20195;-59